sensor_id;sensor_type;location;lat;lon;timestamp;temperature;humidity
3550;DHT22;45572;48.804;8.330;2024-01-30T00:02:18;3.20;96.80
3550;DHT22;45572;48.804;8.330;2024-01-30T00:04:47;3.10;96.80
3550;DHT22;45572;48.804;8.330;2024-01-30T00:07:15;3.10;96.80
3550;DHT22;45572;48.804;8.330;2024-01-30T00:09:45;3.10;96.80
3550;DHT22;45572;48.804;8.330;2024-01-30T00:12:14;3.10;96.80
3550;DHT22;45572;48.804;8.330;2024-01-30T00:14:41;3.10;96.80
3550;DHT22;45572;48.804;8.330;2024-01-30T00:17:12;3.10;96.80
3550;DHT22;45572;48.804;8.330;2024-01-30T00:19:41;3.10;96.80
3550;DHT22;45572;48.804;8.330;2024-01-30T00:22:09;3.10;96.80
3550;DHT22;45572;48.804;8.330;2024-01-30T00:24:37;3.00;96.80
3550;DHT22;45572;48.804;8.330;2024-01-30T00:27:08;3.00;96.80
3550;DHT22;45572;48.804;8.330;2024-01-30T00:29:35;3.00;96.80
3550;DHT22;45572;48.804;8.330;2024-01-30T00:32:04;3.00;96.80
3550;DHT22;45572;48.804;8.330;2024-01-30T00:34:31;2.90;96.80
3550;DHT22;45572;48.804;8.330;2024-01-30T00:37:01;2.90;96.80
3550;DHT22;45572;48.804;8.330;2024-01-30T00:39:28;2.90;96.80
3550;DHT22;45572;48.804;8.330;2024-01-30T00:41:56;2.90;96.80
3550;DHT22;45572;48.804;8.330;2024-01-30T00:44:24;2.80;96.80
3550;DHT22;45572;48.804;8.330;2024-01-30T00:46:52;2.90;96.80
3550;DHT22;45572;48.804;8.330;2024-01-30T00:49:19;2.90;96.80
3550;DHT22;45572;48.804;8.330;2024-01-30T00:51:47;2.90;96.80
3550;DHT22;45572;48.804;8.330;2024-01-30T00:54:16;2.90;96.80
3550;DHT22;45572;48.804;8.330;2024-01-30T00:56:44;2.80;96.80
3550;DHT22;45572;48.804;8.330;2024-01-30T00:59:12;2.80;96.80
3550;DHT22;45572;48.804;8.330;2024-01-30T01:01:41;2.80;96.80
3550;DHT22;45572;48.804;8.330;2024-01-30T01:04:09;2.80;96.80
3550;DHT22;45572;48.804;8.330;2024-01-30T01:06:37;2.90;96.80
3550;DHT22;45572;48.804;8.330;2024-01-30T01:09:05;2.90;96.80
3550;DHT22;45572;48.804;8.330;2024-01-30T01:11:34;2.80;96.80
3550;DHT22;45572;48.804;8.330;2024-01-30T01:14:02;2.80;96.80
3550;DHT22;45572;48.804;8.330;2024-01-30T01:16:30;2.80;96.80
3550;DHT22;45572;48.804;8.330;2024-01-30T01:18:57;2.80;96.80
3550;DHT22;45572;48.804;8.330;2024-01-30T01:21:27;2.70;96.80
3550;DHT22;45572;48.804;8.330;2024-01-30T01:23:55;2.70;96.80
3550;DHT22;45572;48.804;8.330;2024-01-30T01:26:23;2.70;96.80
3550;DHT22;45572;48.804;8.330;2024-01-30T01:28:52;2.60;96.80
3550;DHT22;45572;48.804;8.330;2024-01-30T01:31:20;2.60;96.80
3550;DHT22;45572;48.804;8.330;2024-01-30T01:33:51;2.70;96.80
3550;DHT22;45572;48.804;8.330;2024-01-30T01:36:19;2.60;96.80
3550;DHT22;45572;48.804;8.330;2024-01-30T01:38:47;2.60;96.80
3550;DHT22;45572;48.804;8.330;2024-01-30T01:41:14;2.60;96.80
3550;DHT22;45572;48.804;8.330;2024-01-30T01:43:42;2.60;96.80
3550;DHT22;45572;48.804;8.330;2024-01-30T01:46:11;2.60;96.80
3550;DHT22;45572;48.804;8.330;2024-01-30T01:48:39;2.60;96.80
3550;DHT22;45572;48.804;8.330;2024-01-30T01:51:09;2.50;96.80
3550;DHT22;45572;48.804;8.330;2024-01-30T01:53:37;2.50;96.80
3550;DHT22;45572;48.804;8.330;2024-01-30T01:56:05;2.60;96.80
3550;DHT22;45572;48.804;8.330;2024-01-30T01:58:34;2.60;96.80
3550;DHT22;45572;48.804;8.330;2024-01-30T02:01:02;2.60;96.80
3550;DHT22;45572;48.804;8.330;2024-01-30T02:03:33;2.60;96.80
3550;DHT22;45572;48.804;8.330;2024-01-30T02:06:03;2.60;96.80
3550;DHT22;45572;48.804;8.330;2024-01-30T02:08:32;2.60;96.80
3550;DHT22;45572;48.804;8.330;2024-01-30T02:11:00;2.60;96.80
3550;DHT22;45572;48.804;8.330;2024-01-30T02:13:27;2.60;96.80
3550;DHT22;45572;48.804;8.330;2024-01-30T02:15:55;2.50;96.80
3550;DHT22;45572;48.804;8.330;2024-01-30T02:18:23;2.40;96.80
3550;DHT22;45572;48.804;8.330;2024-01-30T02:20:54;2.40;96.80
3550;DHT22;45572;48.804;8.330;2024-01-30T02:23:25;2.50;96.80
3550;DHT22;45572;48.804;8.330;2024-01-30T02:25:53;2.50;96.80
3550;DHT22;45572;48.804;8.330;2024-01-30T02:28:21;2.50;96.80
3550;DHT22;45572;48.804;8.330;2024-01-30T02:30:49;2.50;96.80
3550;DHT22;45572;48.804;8.330;2024-01-30T02:33:17;2.50;96.80
3550;DHT22;45572;48.804;8.330;2024-01-30T02:35:45;2.40;96.80
3550;DHT22;45572;48.804;8.330;2024-01-30T02:38:13;2.40;96.80
3550;DHT22;45572;48.804;8.330;2024-01-30T02:40:42;2.40;96.80
3550;DHT22;45572;48.804;8.330;2024-01-30T02:43:10;2.40;96.80
3550;DHT22;45572;48.804;8.330;2024-01-30T02:45:37;2.30;96.80
3550;DHT22;45572;48.804;8.330;2024-01-30T02:48:06;2.40;96.80
3550;DHT22;45572;48.804;8.330;2024-01-30T02:50:34;2.40;96.80
3550;DHT22;45572;48.804;8.330;2024-01-30T02:53:01;2.40;96.80
3550;DHT22;45572;48.804;8.330;2024-01-30T02:55:29;2.50;96.80
3550;DHT22;45572;48.804;8.330;2024-01-30T02:57:58;2.50;96.80
3550;DHT22;45572;48.804;8.330;2024-01-30T03:00:26;2.50;96.80
3550;DHT22;45572;48.804;8.330;2024-01-30T03:02:54;2.50;96.80
3550;DHT22;45572;48.804;8.330;2024-01-30T03:05:21;2.50;96.80
3550;DHT22;45572;48.804;8.330;2024-01-30T03:07:49;2.50;96.80
3550;DHT22;45572;48.804;8.330;2024-01-30T03:10:17;2.30;96.80
3550;DHT22;45572;48.804;8.330;2024-01-30T03:12:46;2.30;96.80
3550;DHT22;45572;48.804;8.330;2024-01-30T03:15:15;2.30;96.80
3550;DHT22;45572;48.804;8.330;2024-01-30T03:17:42;2.30;96.80
3550;DHT22;45572;48.804;8.330;2024-01-30T03:20:11;2.30;96.80
3550;DHT22;45572;48.804;8.330;2024-01-30T03:22:39;2.30;96.80
3550;DHT22;45572;48.804;8.330;2024-01-30T03:25:07;2.40;96.80
3550;DHT22;45572;48.804;8.330;2024-01-30T03:27:35;2.40;96.80
3550;DHT22;45572;48.804;8.330;2024-01-30T03:30:03;2.40;96.80
3550;DHT22;45572;48.804;8.330;2024-01-30T03:32:32;2.40;96.80
3550;DHT22;45572;48.804;8.330;2024-01-30T03:35:00;2.30;96.80
3550;DHT22;45572;48.804;8.330;2024-01-30T03:37:28;2.30;96.80
3550;DHT22;45572;48.804;8.330;2024-01-30T03:39:56;2.20;96.80
3550;DHT22;45572;48.804;8.330;2024-01-30T03:42:24;2.20;96.80
3550;DHT22;45572;48.804;8.330;2024-01-30T03:44:52;2.10;96.80
3550;DHT22;45572;48.804;8.330;2024-01-30T03:47:20;2.10;96.80
3550;DHT22;45572;48.804;8.330;2024-01-30T03:49:49;2.10;96.80
3550;DHT22;45572;48.804;8.330;2024-01-30T03:52:17;2.10;96.80
3550;DHT22;45572;48.804;8.330;2024-01-30T03:54:45;2.20;96.80
3550;DHT22;45572;48.804;8.330;2024-01-30T03:57:13;2.10;96.80
3550;DHT22;45572;48.804;8.330;2024-01-30T03:59:41;2.10;96.80
3550;DHT22;45572;48.804;8.330;2024-01-30T04:02:10;2.10;96.80
3550;DHT22;45572;48.804;8.330;2024-01-30T04:04:38;2.10;96.80
3550;DHT22;45572;48.804;8.330;2024-01-30T04:07:07;2.10;96.80
3550;DHT22;45572;48.804;8.330;2024-01-30T04:09:35;2.10;96.80
3550;DHT22;45572;48.804;8.330;2024-01-30T04:12:03;2.00;96.80
3550;DHT22;45572;48.804;8.330;2024-01-30T04:14:31;2.00;96.80
3550;DHT22;45572;48.804;8.330;2024-01-30T04:16:58;2.00;96.80
3550;DHT22;45572;48.804;8.330;2024-01-30T04:19:26;2.10;96.80
3550;DHT22;45572;48.804;8.330;2024-01-30T04:21:54;2.20;96.80
3550;DHT22;45572;48.804;8.330;2024-01-30T04:24:23;2.30;96.80
3550;DHT22;45572;48.804;8.330;2024-01-30T04:26:51;2.30;96.80
3550;DHT22;45572;48.804;8.330;2024-01-30T04:29:19;2.30;96.80
3550;DHT22;45572;48.804;8.330;2024-01-30T04:31:47;2.30;96.80
3550;DHT22;45572;48.804;8.330;2024-01-30T04:34:14;2.20;96.80
3550;DHT22;45572;48.804;8.330;2024-01-30T04:36:44;2.30;96.80
3550;DHT22;45572;48.804;8.330;2024-01-30T04:39:12;2.30;96.80
3550;DHT22;45572;48.804;8.330;2024-01-30T04:41:42;2.20;96.80
3550;DHT22;45572;48.804;8.330;2024-01-30T04:44:09;2.20;96.80
3550;DHT22;45572;48.804;8.330;2024-01-30T04:46:37;2.10;96.80
3550;DHT22;45572;48.804;8.330;2024-01-30T04:49:05;2.10;96.80
3550;DHT22;45572;48.804;8.330;2024-01-30T04:51:34;2.10;96.80
3550;DHT22;45572;48.804;8.330;2024-01-30T04:54:02;2.10;96.80
3550;DHT22;45572;48.804;8.330;2024-01-30T04:56:30;2.10;96.80
3550;DHT22;45572;48.804;8.330;2024-01-30T04:58:59;2.20;96.80
3550;DHT22;45572;48.804;8.330;2024-01-30T05:01:27;2.20;96.80
3550;DHT22;45572;48.804;8.330;2024-01-30T05:03:55;2.20;96.80
3550;DHT22;45572;48.804;8.330;2024-01-30T05:06:24;2.30;96.80
3550;DHT22;45572;48.804;8.330;2024-01-30T05:08:53;2.30;96.80
3550;DHT22;45572;48.804;8.330;2024-01-30T05:11:20;2.20;96.80
3550;DHT22;45572;48.804;8.330;2024-01-30T05:13:48;2.20;96.80
3550;DHT22;45572;48.804;8.330;2024-01-30T05:16:17;2.20;96.80
3550;DHT22;45572;48.804;8.330;2024-01-30T05:18:45;2.10;96.80
3550;DHT22;45572;48.804;8.330;2024-01-30T05:21:13;2.10;96.80
3550;DHT22;45572;48.804;8.330;2024-01-30T05:23:41;2.10;96.80
3550;DHT22;45572;48.804;8.330;2024-01-30T05:26:09;2.20;96.80
3550;DHT22;45572;48.804;8.330;2024-01-30T05:28:36;2.20;96.80
3550;DHT22;45572;48.804;8.330;2024-01-30T05:31:04;2.20;96.80
3550;DHT22;45572;48.804;8.330;2024-01-30T05:33:33;2.30;96.80
3550;DHT22;45572;48.804;8.330;2024-01-30T05:36:01;2.10;96.80
3550;DHT22;45572;48.804;8.330;2024-01-30T05:38:29;2.10;96.80
3550;DHT22;45572;48.804;8.330;2024-01-30T05:40:58;2.00;96.80
3550;DHT22;45572;48.804;8.330;2024-01-30T05:43:26;2.00;96.80
3550;DHT22;45572;48.804;8.330;2024-01-30T05:45:54;2.10;96.80
3550;DHT22;45572;48.804;8.330;2024-01-30T05:48:22;2.00;96.80
3550;DHT22;45572;48.804;8.330;2024-01-30T05:50:51;1.90;96.80
3550;DHT22;45572;48.804;8.330;2024-01-30T05:53:19;1.90;96.80
3550;DHT22;45572;48.804;8.330;2024-01-30T05:55:47;1.90;96.80
3550;DHT22;45572;48.804;8.330;2024-01-30T05:58:14;1.90;96.80
3550;DHT22;45572;48.804;8.330;2024-01-30T06:00:42;2.00;96.80
3550;DHT22;45572;48.804;8.330;2024-01-30T06:03:12;2.00;96.80
3550;DHT22;45572;48.804;8.330;2024-01-30T06:05:39;2.00;96.80
3550;DHT22;45572;48.804;8.330;2024-01-30T06:08:09;1.90;96.80
3550;DHT22;45572;48.804;8.330;2024-01-30T06:10:37;2.10;96.80
3550;DHT22;45572;48.804;8.330;2024-01-30T06:13:05;2.00;96.80
3550;DHT22;45572;48.804;8.330;2024-01-30T06:15:33;1.90;96.80
3550;DHT22;45572;48.804;8.330;2024-01-30T06:18:01;1.90;96.80
3550;DHT22;45572;48.804;8.330;2024-01-30T06:20:32;1.90;96.80
3550;DHT22;45572;48.804;8.330;2024-01-30T06:23:03;1.90;96.80
3550;DHT22;45572;48.804;8.330;2024-01-30T06:25:32;1.90;96.80
3550;DHT22;45572;48.804;8.330;2024-01-30T06:28:00;1.90;96.80
3550;DHT22;45572;48.804;8.330;2024-01-30T06:30:28;1.80;96.80
3550;DHT22;45572;48.804;8.330;2024-01-30T06:32:56;1.80;96.80
3550;DHT22;45572;48.804;8.330;2024-01-30T06:35:24;1.90;96.80
3550;DHT22;45572;48.804;8.330;2024-01-30T06:37:52;1.80;96.80
3550;DHT22;45572;48.804;8.330;2024-01-30T06:40:20;1.80;96.80
3550;DHT22;45572;48.804;8.330;2024-01-30T06:42:50;1.80;96.80
3550;DHT22;45572;48.804;8.330;2024-01-30T06:45:17;1.90;96.80
3550;DHT22;45572;48.804;8.330;2024-01-30T06:47:45;1.80;96.80
3550;DHT22;45572;48.804;8.330;2024-01-30T06:50:13;1.80;96.80
3550;DHT22;45572;48.804;8.330;2024-01-30T06:52:41;1.90;96.80
3550;DHT22;45572;48.804;8.330;2024-01-30T06:55:10;1.90;96.80
3550;DHT22;45572;48.804;8.330;2024-01-30T06:57:38;1.90;96.80
3550;DHT22;45572;48.804;8.330;2024-01-30T07:00:07;2.00;96.80
3550;DHT22;45572;48.804;8.330;2024-01-30T07:02:35;1.90;96.80
3550;DHT22;45572;48.804;8.330;2024-01-30T07:05:04;1.90;96.80
3550;DHT22;45572;48.804;8.330;2024-01-30T07:07:32;2.00;96.80
3550;DHT22;45572;48.804;8.330;2024-01-30T07:10:00;2.00;96.80
3550;DHT22;45572;48.804;8.330;2024-01-30T07:12:28;2.00;96.80
3550;DHT22;45572;48.804;8.330;2024-01-30T07:14:56;2.00;96.80
3550;DHT22;45572;48.804;8.330;2024-01-30T07:17:27;2.00;96.80
3550;DHT22;45572;48.804;8.330;2024-01-30T07:19:55;2.10;96.80
3550;DHT22;45572;48.804;8.330;2024-01-30T07:22:23;2.10;96.80
3550;DHT22;45572;48.804;8.330;2024-01-30T07:24:51;2.10;96.80
3550;DHT22;45572;48.804;8.330;2024-01-30T07:27:19;2.20;96.80
3550;DHT22;45572;48.804;8.330;2024-01-30T07:29:48;2.30;96.80
3550;DHT22;45572;48.804;8.330;2024-01-30T07:32:16;2.30;96.80
3550;DHT22;45572;48.804;8.330;2024-01-30T07:34:46;2.40;96.80
3550;DHT22;45572;48.804;8.330;2024-01-30T07:37:32;2.40;96.80
3550;DHT22;45572;48.804;8.330;2024-01-30T07:40:01;2.50;96.80
3550;DHT22;45572;48.804;8.330;2024-01-30T07:42:29;2.50;96.80
3550;DHT22;45572;48.804;8.330;2024-01-30T07:44:57;2.60;96.80
3550;DHT22;45572;48.804;8.330;2024-01-30T07:47:25;2.70;96.80
3550;DHT22;45572;48.804;8.330;2024-01-30T07:49:54;2.80;96.80
3550;DHT22;45572;48.804;8.330;2024-01-30T07:52:22;2.80;96.80
3550;DHT22;45572;48.804;8.330;2024-01-30T07:54:50;2.90;96.80
3550;DHT22;45572;48.804;8.330;2024-01-30T07:57:19;3.00;96.80
3550;DHT22;45572;48.804;8.330;2024-01-30T07:59:47;3.10;96.80
3550;DHT22;45572;48.804;8.330;2024-01-30T08:02:14;3.20;96.80
3550;DHT22;45572;48.804;8.330;2024-01-30T08:04:44;3.40;96.80
3550;DHT22;45572;48.804;8.330;2024-01-30T08:07:16;3.50;96.80
3550;DHT22;45572;48.804;8.330;2024-01-30T08:09:45;3.70;96.80
3550;DHT22;45572;48.804;8.330;2024-01-30T08:12:12;3.90;96.70
3550;DHT22;45572;48.804;8.330;2024-01-30T08:14:40;4.00;95.90
3550;DHT22;45572;48.804;8.330;2024-01-30T08:17:08;4.20;95.60
3550;DHT22;45572;48.804;8.330;2024-01-30T08:19:36;4.40;95.50
3550;DHT22;45572;48.804;8.330;2024-01-30T08:22:04;4.50;95.30
3550;DHT22;45572;48.804;8.330;2024-01-30T08:24:33;4.60;94.60
3550;DHT22;45572;48.804;8.330;2024-01-30T08:27:00;4.80;95.10
3550;DHT22;45572;48.804;8.330;2024-01-30T08:29:29;5.10;95.00
3550;DHT22;45572;48.804;8.330;2024-01-30T08:31:56;5.20;94.30
3550;DHT22;45572;48.804;8.330;2024-01-30T08:34:26;5.30;94.00
3550;DHT22;45572;48.804;8.330;2024-01-30T08:36:53;5.20;93.60
3550;DHT22;45572;48.804;8.330;2024-01-30T08:39:21;5.40;93.90
3550;DHT22;45572;48.804;8.330;2024-01-30T08:41:50;5.50;93.20
3550;DHT22;45572;48.804;8.330;2024-01-30T08:44:18;5.50;93.30
3550;DHT22;45572;48.804;8.330;2024-01-30T08:46:46;5.70;93.00
3550;DHT22;45572;48.804;8.330;2024-01-30T08:49:17;5.80;92.80
3550;DHT22;45572;48.804;8.330;2024-01-30T08:51:45;5.90;92.80
3550;DHT22;45572;48.804;8.330;2024-01-30T08:54:13;5.90;92.10
3550;DHT22;45572;48.804;8.330;2024-01-30T08:56:41;5.90;92.00
3550;DHT22;45572;48.804;8.330;2024-01-30T08:59:10;5.90;92.20
3550;DHT22;45572;48.804;8.330;2024-01-30T09:01:39;5.90;92.60
3550;DHT22;45572;48.804;8.330;2024-01-30T09:04:21;5.90;92.70
3550;DHT22;45572;48.804;8.330;2024-01-30T09:06:52;6.00;92.80
3550;DHT22;45572;48.804;8.330;2024-01-30T09:09:20;6.00;92.90
3550;DHT22;45572;48.804;8.330;2024-01-30T09:11:47;5.80;92.80
3550;DHT22;45572;48.804;8.330;2024-01-30T09:14:16;5.90;93.30
3550;DHT22;45572;48.804;8.330;2024-01-30T09:16:44;6.00;93.20
3550;DHT22;45572;48.804;8.330;2024-01-30T09:19:12;6.20;93.10
3550;DHT22;45572;48.804;8.330;2024-01-30T09:21:40;6.30;93.00
3550;DHT22;45572;48.804;8.330;2024-01-30T09:24:07;6.50;93.10
3550;DHT22;45572;48.804;8.330;2024-01-30T09:26:35;6.70;93.10
3550;DHT22;45572;48.804;8.330;2024-01-30T09:29:03;6.90;92.70
3550;DHT22;45572;48.804;8.330;2024-01-30T09:31:32;7.10;92.40
3550;DHT22;45572;48.804;8.330;2024-01-30T09:34:00;7.50;92.40
3550;DHT22;45572;48.804;8.330;2024-01-30T09:36:28;7.80;92.30
3550;DHT22;45572;48.804;8.330;2024-01-30T09:38:56;8.30;91.90
3550;DHT22;45572;48.804;8.330;2024-01-30T09:41:25;8.70;91.30
3550;DHT22;45572;48.804;8.330;2024-01-30T09:43:54;9.00;89.40
3550;DHT22;45572;48.804;8.330;2024-01-30T09:46:23;9.30;87.90
3550;DHT22;45572;48.804;8.330;2024-01-30T09:48:55;9.80;87.90
3550;DHT22;45572;48.804;8.330;2024-01-30T09:51:25;10.60;87.40
3550;DHT22;45572;48.804;8.330;2024-01-30T09:53:54;11.50;85.90
3550;DHT22;45572;48.804;8.330;2024-01-30T09:56:22;12.10;82.30
3550;DHT22;45572;48.804;8.330;2024-01-30T09:58:50;12.40;79.20
3550;DHT22;45572;48.804;8.330;2024-01-30T10:01:18;11.50;80.40
3550;DHT22;45572;48.804;8.330;2024-01-30T10:03:46;11.60;79.90
3550;DHT22;45572;48.804;8.330;2024-01-30T10:06:16;11.60;79.10
3550;DHT22;45572;48.804;8.330;2024-01-30T10:08:47;11.70;79.40
3550;DHT22;45572;48.804;8.330;2024-01-30T10:11:14;11.50;79.40
3550;DHT22;45572;48.804;8.330;2024-01-30T10:13:42;11.50;80.50
3550;DHT22;45572;48.804;8.330;2024-01-30T10:16:10;11.50;81.30
3550;DHT22;45572;48.804;8.330;2024-01-30T10:18:38;11.60;82.50
3550;DHT22;45572;48.804;8.330;2024-01-30T10:21:09;11.70;81.80
3550;DHT22;45572;48.804;8.330;2024-01-30T10:23:38;11.80;79.60
3550;DHT22;45572;48.804;8.330;2024-01-30T10:26:07;11.90;80.60
3550;DHT22;45572;48.804;8.330;2024-01-30T10:28:35;11.90;79.20
3550;DHT22;45572;48.804;8.330;2024-01-30T10:31:03;11.80;78.60
3550;DHT22;45572;48.804;8.330;2024-01-30T10:33:33;11.90;78.70
3550;DHT22;45572;48.804;8.330;2024-01-30T10:36:02;12.20;78.70
3550;DHT22;45572;48.804;8.330;2024-01-30T10:38:31;12.60;78.20
3550;DHT22;45572;48.804;8.330;2024-01-30T10:41:01;13.10;76.90
3550;DHT22;45572;48.804;8.330;2024-01-30T10:43:32;13.60;75.30
3550;DHT22;45572;48.804;8.330;2024-01-30T10:46:06;14.30;73.60
3550;DHT22;45572;48.804;8.330;2024-01-30T10:48:42;14.90;69.90
3550;DHT22;45572;48.804;8.330;2024-01-30T10:51:11;15.40;68.00
3550;DHT22;45572;48.804;8.330;2024-01-30T10:53:41;15.90;65.30
3550;DHT22;45572;48.804;8.330;2024-01-30T10:56:13;16.10;64.60
3550;DHT22;45572;48.804;8.330;2024-01-30T10:58:41;15.60;63.70
3550;DHT22;45572;48.804;8.330;2024-01-30T11:01:09;15.20;63.90
3550;DHT22;45572;48.804;8.330;2024-01-30T11:03:38;14.90;65.40
3550;DHT22;45572;48.804;8.330;2024-01-30T11:06:10;15.00;65.90
3550;DHT22;45572;48.804;8.330;2024-01-30T11:08:38;14.30;67.60
3550;DHT22;45572;48.804;8.330;2024-01-30T11:11:09;13.80;70.20
3550;DHT22;45572;48.804;8.330;2024-01-30T11:13:40;14.00;68.90
3550;DHT22;45572;48.804;8.330;2024-01-30T11:16:11;14.10;68.60
3550;DHT22;45572;48.804;8.330;2024-01-30T11:18:39;14.20;67.60
3550;DHT22;45572;48.804;8.330;2024-01-30T11:21:07;14.60;69.10
3550;DHT22;45572;48.804;8.330;2024-01-30T11:23:35;14.80;67.50
3550;DHT22;45572;48.804;8.330;2024-01-30T11:26:04;15.10;67.30
3550;DHT22;45572;48.804;8.330;2024-01-30T11:28:32;15.20;66.80
3550;DHT22;45572;48.804;8.330;2024-01-30T11:31:05;15.80;67.20
3550;DHT22;45572;48.804;8.330;2024-01-30T11:33:34;15.60;65.80
3550;DHT22;45572;48.804;8.330;2024-01-30T11:36:03;15.40;65.60
3550;DHT22;45572;48.804;8.330;2024-01-30T11:38:33;15.20;67.00
3550;DHT22;45572;48.804;8.330;2024-01-30T11:41:01;15.40;67.80
3550;DHT22;45572;48.804;8.330;2024-01-30T11:43:30;16.00;67.00
3550;DHT22;45572;48.804;8.330;2024-01-30T11:46:00;16.50;65.60
3550;DHT22;45572;48.804;8.330;2024-01-30T11:48:29;16.70;63.30
3550;DHT22;45572;48.804;8.330;2024-01-30T11:50:57;15.80;64.50
3550;DHT22;45572;48.804;8.330;2024-01-30T11:53:25;15.60;67.50
3550;DHT22;45572;48.804;8.330;2024-01-30T11:55:53;15.40;67.80
3550;DHT22;45572;48.804;8.330;2024-01-30T11:58:24;15.00;68.10
3550;DHT22;45572;48.804;8.330;2024-01-30T12:00:53;14.60;69.90
3550;DHT22;45572;48.804;8.330;2024-01-30T12:03:25;14.00;71.00
3550;DHT22;45572;48.804;8.330;2024-01-30T12:05:58;13.70;73.00
3550;DHT22;45572;48.804;8.330;2024-01-30T12:08:27;13.40;73.80
3550;DHT22;45572;48.804;8.330;2024-01-30T12:10:56;13.20;74.70
3550;DHT22;45572;48.804;8.330;2024-01-30T12:13:25;13.10;75.10
3550;DHT22;45572;48.804;8.330;2024-01-30T12:15:58;13.10;75.20
3550;DHT22;45572;48.804;8.330;2024-01-30T12:18:26;13.10;75.50
3550;DHT22;45572;48.804;8.330;2024-01-30T12:20:59;13.10;75.90
3550;DHT22;45572;48.804;8.330;2024-01-30T12:23:28;13.10;76.30
3550;DHT22;45572;48.804;8.330;2024-01-30T12:25:56;13.10;76.60
3550;DHT22;45572;48.804;8.330;2024-01-30T12:28:24;13.20;76.80
3550;DHT22;45572;48.804;8.330;2024-01-30T12:30:55;13.30;75.80
3550;DHT22;45572;48.804;8.330;2024-01-30T12:33:26;12.90;76.60
3550;DHT22;45572;48.804;8.330;2024-01-30T12:35:55;12.90;76.90
3550;DHT22;45572;48.804;8.330;2024-01-30T12:38:31;12.90;76.70
3550;DHT22;45572;48.804;8.330;2024-01-30T12:40:58;12.90;77.60
3550;DHT22;45572;48.804;8.330;2024-01-30T12:43:27;13.10;77.70
3550;DHT22;45572;48.804;8.330;2024-01-30T12:46:05;13.20;77.10
3550;DHT22;45572;48.804;8.330;2024-01-30T12:48:33;13.20;77.50
3550;DHT22;45572;48.804;8.330;2024-01-30T12:51:01;13.00;77.30
3550;DHT22;45572;48.804;8.330;2024-01-30T12:53:31;12.90;77.90
3550;DHT22;45572;48.804;8.330;2024-01-30T12:55:58;12.80;78.50
3550;DHT22;45572;48.804;8.330;2024-01-30T12:58:26;12.80;78.80
3550;DHT22;45572;48.804;8.330;2024-01-30T13:00:54;12.80;77.70
3550;DHT22;45572;48.804;8.330;2024-01-30T13:03:22;12.90;77.80
3550;DHT22;45572;48.804;8.330;2024-01-30T13:05:50;12.90;77.40
3550;DHT22;45572;48.804;8.330;2024-01-30T13:08:18;12.90;77.80
3550;DHT22;45572;48.804;8.330;2024-01-30T13:10:47;12.90;77.50
3550;DHT22;45572;48.804;8.330;2024-01-30T13:13:16;12.80;77.60
3550;DHT22;45572;48.804;8.330;2024-01-30T13:15:47;12.90;77.10
3550;DHT22;45572;48.804;8.330;2024-01-30T13:18:15;12.90;77.40
3550;DHT22;45572;48.804;8.330;2024-01-30T13:20:43;12.80;77.70
3550;DHT22;45572;48.804;8.330;2024-01-30T13:23:10;12.90;77.00
3550;DHT22;45572;48.804;8.330;2024-01-30T13:25:38;13.00;77.00
3550;DHT22;45572;48.804;8.330;2024-01-30T13:28:08;12.90;77.20
3550;DHT22;45572;48.804;8.330;2024-01-30T13:30:36;12.80;77.50
3550;DHT22;45572;48.804;8.330;2024-01-30T13:33:04;12.80;77.70
3550;DHT22;45572;48.804;8.330;2024-01-30T13:35:32;12.80;77.30
3550;DHT22;45572;48.804;8.330;2024-01-30T13:38:00;12.80;78.10
3550;DHT22;45572;48.804;8.330;2024-01-30T13:40:28;12.70;78.20
3550;DHT22;45572;48.804;8.330;2024-01-30T13:42:56;12.70;78.60
3550;DHT22;45572;48.804;8.330;2024-01-30T13:45:26;12.80;78.70
3550;DHT22;45572;48.804;8.330;2024-01-30T13:47:54;12.70;78.60
3550;DHT22;45572;48.804;8.330;2024-01-30T13:50:22;12.70;78.60
3550;DHT22;45572;48.804;8.330;2024-01-30T13:52:50;12.80;78.80
3550;DHT22;45572;48.804;8.330;2024-01-30T13:55:17;12.80;78.70
3550;DHT22;45572;48.804;8.330;2024-01-30T13:57:45;12.80;79.10
3550;DHT22;45572;48.804;8.330;2024-01-30T14:00:17;12.90;79.00
3550;DHT22;45572;48.804;8.330;2024-01-30T14:02:46;13.10;78.50
3550;DHT22;45572;48.804;8.330;2024-01-30T14:05:14;13.20;78.70
3550;DHT22;45572;48.804;8.330;2024-01-30T14:07:43;13.20;77.50
3550;DHT22;45572;48.804;8.330;2024-01-30T14:10:11;13.20;77.20
3550;DHT22;45572;48.804;8.330;2024-01-30T14:12:42;13.10;77.30
3550;DHT22;45572;48.804;8.330;2024-01-30T14:15:10;12.90;77.60
3550;DHT22;45572;48.804;8.330;2024-01-30T14:17:54;12.80;78.10
3550;DHT22;45572;48.804;8.330;2024-01-30T14:20:23;12.70;78.50
3550;DHT22;45572;48.804;8.330;2024-01-30T14:22:51;12.50;78.70
3550;DHT22;45572;48.804;8.330;2024-01-30T14:25:19;12.40;79.00
3550;DHT22;45572;48.804;8.330;2024-01-30T14:27:47;12.40;79.00
3550;DHT22;45572;48.804;8.330;2024-01-30T14:30:15;12.50;78.70
3550;DHT22;45572;48.804;8.330;2024-01-30T14:32:43;12.60;78.90
3550;DHT22;45572;48.804;8.330;2024-01-30T14:35:13;12.70;78.70
3550;DHT22;45572;48.804;8.330;2024-01-30T14:37:41;12.70;79.40
3550;DHT22;45572;48.804;8.330;2024-01-30T14:40:09;12.70;80.50
3550;DHT22;45572;48.804;8.330;2024-01-30T14:42:37;12.80;81.30
3550;DHT22;45572;48.804;8.330;2024-01-30T14:45:06;12.80;82.40
3550;DHT22;45572;48.804;8.330;2024-01-30T14:47:34;12.70;82.70
3550;DHT22;45572;48.804;8.330;2024-01-30T14:50:02;12.70;83.20
3550;DHT22;45572;48.804;8.330;2024-01-30T14:52:34;12.60;83.90
3550;DHT22;45572;48.804;8.330;2024-01-30T14:55:02;12.60;84.00
3550;DHT22;45572;48.804;8.330;2024-01-30T14:57:30;12.50;83.90
3550;DHT22;45572;48.804;8.330;2024-01-30T14:59:58;12.50;84.00
3550;DHT22;45572;48.804;8.330;2024-01-30T15:02:27;12.50;83.30
3550;DHT22;45572;48.804;8.330;2024-01-30T15:04:54;12.50;84.00
3550;DHT22;45572;48.804;8.330;2024-01-30T15:07:22;12.50;84.70
3550;DHT22;45572;48.804;8.330;2024-01-30T15:10:03;12.40;85.00
3550;DHT22;45572;48.804;8.330;2024-01-30T15:12:31;12.40;85.30
3550;DHT22;45572;48.804;8.330;2024-01-30T15:14:59;12.20;85.60
3550;DHT22;45572;48.804;8.330;2024-01-30T15:17:27;12.10;85.90
3550;DHT22;45572;48.804;8.330;2024-01-30T15:19:55;12.00;86.50
3550;DHT22;45572;48.804;8.330;2024-01-30T15:22:25;12.00;86.80
3550;DHT22;45572;48.804;8.330;2024-01-30T15:24:53;11.90;86.90
3550;DHT22;45572;48.804;8.330;2024-01-30T15:27:22;11.80;87.50
3550;DHT22;45572;48.804;8.330;2024-01-30T15:29:54;11.70;87.60
3550;DHT22;45572;48.804;8.330;2024-01-30T15:32:21;11.70;87.70
3550;DHT22;45572;48.804;8.330;2024-01-30T15:34:49;11.60;87.90
3550;DHT22;45572;48.804;8.330;2024-01-30T15:37:17;11.50;88.10
3550;DHT22;45572;48.804;8.330;2024-01-30T15:39:45;11.50;88.10
3550;DHT22;45572;48.804;8.330;2024-01-30T15:42:13;11.50;88.00
3550;DHT22;45572;48.804;8.330;2024-01-30T15:44:42;11.50;87.80
3550;DHT22;45572;48.804;8.330;2024-01-30T15:47:09;11.50;87.90
3550;DHT22;45572;48.804;8.330;2024-01-30T15:49:37;11.40;88.20
3550;DHT22;45572;48.804;8.330;2024-01-30T15:52:05;11.30;88.20
3550;DHT22;45572;48.804;8.330;2024-01-30T15:54:33;11.00;88.80
3550;DHT22;45572;48.804;8.330;2024-01-30T15:57:01;11.00;89.00
3550;DHT22;45572;48.804;8.330;2024-01-30T15:59:28;11.00;89.30
3550;DHT22;45572;48.804;8.330;2024-01-30T16:01:58;10.90;89.20
3550;DHT22;45572;48.804;8.330;2024-01-30T16:04:26;10.90;89.20